createdAt,value
2024-02-29T00:04:58.015Z,98897.00
2024-02-29T00:10:19.923Z,98890.22
2024-02-29T00:15:41.983Z,98883.31
2024-02-29T00:21:04.355Z,98876.56
2024-02-29T00:26:26.200Z,98878.75
2024-02-29T00:31:48.181Z,98874.47
2024-02-29T00:37:10.580Z,98873.91
2024-02-29T00:42:32.627Z,98875.91
2024-02-29T00:47:56.108Z,98877.75
2024-02-29T00:53:18.145Z,98868.25
2024-02-29T00:58:39.953Z,98870.91
2024-02-29T01:04:01.830Z,98858.03
2024-02-29T01:09:28.167Z,98861.50
2024-02-29T01:14:51.468Z,98848.78
2024-02-29T01:20:13.438Z,98848.84
2024-02-29T01:25:35.277Z,98844.69
2024-02-29T01:30:57.132Z,98834.75
2024-02-29T01:36:19.294Z,98827.25
2024-02-29T01:41:41.149Z,98828.09
2024-02-29T01:47:02.972Z,98817.06
2024-02-29T01:52:27.843Z,98814.50
2024-02-29T01:57:49.864Z,98823.06
2024-02-29T02:03:11.764Z,98817.34
2024-02-29T02:08:33.651Z,98819.94
2024-02-29T02:13:55.918Z,98807.97
2024-02-29T02:19:17.882Z,98803.81
2024-02-29T02:24:39.793Z,98797.91
2024-02-29T02:30:07.900Z,98801.50
2024-02-29T02:35:29.702Z,98794.63
2024-02-29T02:40:51.557Z,98784.47
2024-02-29T02:46:13.434Z,98782.88
2024-02-29T02:51:35.389Z,98773.41
2024-02-29T02:56:57.185Z,98767.44
2024-02-29T03:02:21.757Z,98759.75
2024-02-29T03:07:43.639Z,98756.13
2024-02-29T03:13:05.589Z,98744.31
2024-02-29T03:18:27.460Z,98741.00
2024-02-29T03:23:49.287Z,98736.03
2024-02-29T03:29:12.991Z,98728.38
2024-02-29T03:34:34.785Z,98729.22
2024-02-29T03:39:56.664Z,98722.31
2024-02-29T03:45:18.591Z,98719.75
2024-02-29T03:50:40.634Z,98719.81
2024-02-29T03:56:02.475Z,98712.25
2024-02-29T04:01:24.792Z,98718.31
2024-02-29T04:06:47.296Z,98718.16
2024-02-29T04:12:09.310Z,98730.97
2024-02-29T04:17:33.597Z,98724.06
2024-02-29T04:22:55.557Z,98714.81
2024-02-29T04:28:18.698Z,98718.31
2024-02-29T04:33:41.802Z,98713.19
2024-02-29T04:39:03.779Z,98709.84
2024-02-29T04:44:25.672Z,98713.34
2024-02-29T04:49:47.578Z,98702.94
2024-02-29T04:55:09.910Z,98702.97
2024-02-29T05:00:31.780Z,98699.63
2024-02-29T05:05:53.709Z,98693.75
2024-02-29T05:11:15.601Z,98691.25
2024-02-29T05:16:37.519Z,98689.69
2024-02-29T05:21:59.345Z,98677.69
2024-02-29T05:27:21.217Z,98678.44
2024-02-29T05:32:43.146Z,98675.06
2024-02-29T05:38:05.321Z,98673.47
2024-02-29T05:43:27.071Z,98663.94
2024-02-29T05:48:49.081Z,98659.59
2024-02-29T05:54:10.919Z,98656.34
2024-02-29T05:59:32.781Z,98646.16
2024-02-29T06:04:54.625Z,98650.38
2024-02-29T06:10:16.734Z,98641.69
2024-02-29T06:15:38.556Z,98638.19
2024-02-29T06:21:00.535Z,98638.19
2024-02-29T06:26:22.464Z,98634.59
2024-02-29T06:31:44.381Z,98618.38
2024-02-29T06:37:07.818Z,98630.44
2024-02-29T06:42:29.652Z,98621.94
2024-02-29T06:47:51.859Z,98610.66
2024-02-29T06:53:14.157Z,98615.63
2024-02-29T06:58:37.122Z,98620.03
2024-02-29T07:04:01.962Z,98616.47
2024-02-29T07:09:23.762Z,98616.28
2024-02-29T07:14:45.658Z,98605.75
2024-02-29T07:20:08.973Z,98601.97
2024-02-29T07:25:30.828Z,98602.81
2024-02-29T07:30:52.633Z,98597.28
2024-02-29T07:36:14.439Z,98599.56
2024-02-29T07:41:36.200Z,98603.59
2024-02-29T07:46:57.922Z,98592.78
2024-02-29T07:52:19.990Z,98589.66
2024-02-29T07:57:42.373Z,98591.66
2024-02-29T08:03:05.874Z,98590.25
2024-02-29T08:08:27.734Z,98589.53
2024-02-29T08:13:49.494Z,98585.22
2024-02-29T08:19:11.419Z,98578.47
2024-02-29T08:24:33.281Z,98577.41
2024-02-29T08:29:55.182Z,98570.53
2024-02-29T08:35:19.041Z,98566.16
2024-02-29T08:40:40.982Z,98555.88
2024-02-29T08:46:03.860Z,98548.75
2024-02-29T08:51:25.673Z,98538.38
2024-02-29T08:56:47.481Z,98532.91
2024-02-29T09:02:09.325Z,98529.22
2024-02-29T09:07:31.289Z,98522.06
2024-02-29T09:12:55.353Z,98514.59
2024-02-29T09:18:17.171Z,98495.66
2024-02-29T09:23:39.200Z,98470.22
2024-02-29T09:29:01.386Z,98440.03
2024-02-29T09:34:23.479Z,98425.66
2024-02-29T09:39:45.433Z,98429.88
2024-02-29T09:45:12.939Z,98409.72
2024-02-29T09:50:34.859Z,98408.56
2024-02-29T09:55:58.034Z,98391.03
2024-02-29T10:01:20.129Z,98375.91
2024-02-29T10:06:42.096Z,98364.41
2024-02-29T10:12:05.369Z,98361.28
2024-02-29T10:17:27.586Z,98345.78
2024-02-29T10:22:55.473Z,98340.19
2024-02-29T10:28:17.478Z,98331.09
2024-02-29T10:33:47.577Z,98321.69
2024-02-29T10:39:10.122Z,98317.47
2024-02-29T10:44:35.887Z,98307.56
2024-02-29T10:50:05.855Z,98303.69
2024-02-29T10:55:35.216Z,98286.56
2024-02-29T11:00:57.141Z,98283.97
2024-02-29T11:06:20.297Z,98267.78
2024-02-29T11:11:44.047Z,98258.31
2024-02-29T11:17:06.579Z,98245.25
2024-02-29T11:22:34.008Z,98232.28
2024-02-29T11:27:56.176Z,98217.88
2024-02-29T11:33:21.434Z,98207.78
2024-02-29T11:38:44.863Z,98215.88
2024-02-29T11:44:06.765Z,98211.97
2024-02-29T11:49:29.216Z,98190.72
2024-02-29T11:54:51.145Z,98180.69
2024-02-29T12:00:14.037Z,98175.09
2024-02-29T12:10:59.679Z,98159.34
2024-02-29T12:16:21.782Z,98148.28
2024-02-29T12:21:44.682Z,98137.28
2024-02-29T12:27:06.604Z,98133.16
2024-02-29T12:32:28.574Z,98129.53
2024-02-29T12:37:51.989Z,98112.06
2024-02-29T12:43:17.301Z,98098.94
2024-02-29T12:48:39.315Z,98086.78
2024-02-29T12:54:01.133Z,98071.69
2024-02-29T12:59:23.053Z,98063.56
2024-02-29T13:04:44.935Z,98058.38
2024-02-29T13:10:07.501Z,98051.59
2024-02-29T13:15:29.413Z,98030.97
2024-02-29T13:20:51.838Z,98035.88
2024-02-29T13:26:13.776Z,98024.41
2024-02-29T13:31:35.745Z,98029.25
2024-02-29T13:36:57.701Z,98009.81
2024-02-29T13:42:20.085Z,98002.31
2024-02-29T13:47:50.740Z,97982.84
2024-02-29T13:53:13.007Z,97974.63
2024-02-29T13:58:34.863Z,97959.28
2024-02-29T14:03:56.737Z,97952.94
2024-02-29T14:09:20.004Z,97936.38
2024-02-29T14:14:41.919Z,97933.63
2024-02-29T14:20:04.105Z,97928.75
2024-02-29T14:25:26.021Z,97921.41
2024-02-29T14:30:47.877Z,97906.16
2024-02-29T14:36:11.422Z,97899.28
2024-02-29T14:41:36.240Z,97908.09
2024-02-29T14:46:58.684Z,97891.13
2024-02-29T14:52:20.761Z,97884.88
2024-02-29T14:57:42.674Z,97883.34
2024-02-29T15:03:05.439Z,97885.88
2024-02-29T15:08:27.368Z,97875.53
2024-02-29T15:13:49.533Z,97870.16
2024-02-29T15:19:11.389Z,97868.88
2024-02-29T15:24:33.167Z,97849.63
2024-02-29T15:29:55.027Z,97853.72
2024-02-29T15:35:16.867Z,97855.19
2024-02-29T15:40:38.776Z,97841.06
2024-02-29T15:46:00.702Z,97834.94
2024-02-29T15:51:22.626Z,97829.56
2024-02-29T15:56:45.331Z,97828.41
2024-02-29T16:02:07.773Z,97819.38
2024-02-29T16:07:29.693Z,97809.91
2024-02-29T16:12:53.536Z,97814.44
2024-02-29T16:18:15.424Z,97820.78
2024-02-29T16:23:37.331Z,97825.53
2024-02-29T16:28:59.253Z,97818.06
2024-02-29T16:34:21.196Z,97816.38
2024-02-29T16:39:43.161Z,97807.91
2024-02-29T16:45:05.848Z,97804.94
2024-02-29T16:50:28.624Z,97800.44
2024-02-29T16:55:50.428Z,97804.75
2024-02-29T17:01:12.324Z,97793.38
2024-02-29T17:06:36.409Z,97794.13
2024-02-29T17:11:58.740Z,97794.88
2024-02-29T17:17:20.663Z,97803.53
2024-02-29T17:22:44.808Z,97797.03
2024-02-29T17:28:06.785Z,97797.84
2024-02-29T17:33:28.653Z,97796.25
2024-02-29T17:38:50.443Z,97783.69
2024-02-29T17:44:12.365Z,97788.97
2024-02-29T17:49:34.230Z,97776.16
2024-02-29T17:54:59.117Z,97767.72
2024-02-29T18:00:21.179Z,97767.03
2024-02-29T18:05:43.942Z,97762.03
2024-02-29T18:11:05.804Z,97751.91
2024-02-29T18:16:29.383Z,97755.06
2024-02-29T18:21:51.839Z,97748.84
2024-02-29T18:27:15.381Z,97750.06
2024-02-29T18:32:37.244Z,97741.50
2024-02-29T18:37:59.158Z,97737.88
2024-02-29T18:43:21.406Z,97735.28
2024-02-29T18:48:43.534Z,97730.84
2024-02-29T18:54:06.583Z,97734.28
2024-02-29T18:59:29.408Z,97728.53
2024-02-29T19:04:52.693Z,97727.59
2024-02-29T19:10:15.377Z,97721.75
2024-02-29T19:15:37.336Z,97721.38
2024-02-29T19:20:59.206Z,97713.19
2024-02-29T19:26:23.941Z,97709.47
2024-02-29T19:31:45.817Z,97710.66
2024-02-29T19:37:08.419Z,97697.84
2024-02-29T19:42:30.240Z,97693.75
2024-02-29T19:47:52.687Z,97687.81
2024-02-29T19:53:14.953Z,97682.31
2024-02-29T19:58:37.022Z,97680.00
2024-02-29T20:03:59.274Z,97690.25
2024-02-29T20:09:23.072Z,97686.19
2024-02-29T20:14:44.962Z,97684.75
2024-02-29T20:20:08.140Z,97693.00
2024-02-29T20:25:30.609Z,97686.03
2024-02-29T20:30:52.855Z,97683.06
2024-02-29T20:36:15.684Z,97687.53
2024-02-29T20:41:37.501Z,97691.47
2024-02-29T20:46:59.335Z,97689.25
2024-02-29T20:52:24.560Z,97685.41
2024-02-29T20:57:46.497Z,97695.44
2024-02-29T21:03:09.031Z,97684.06
2024-02-29T21:08:33.383Z,97693.44
2024-02-29T21:13:55.323Z,97686.91
2024-02-29T21:19:17.389Z,97680.22
2024-02-29T21:24:39.381Z,97686.09
2024-02-29T21:30:06.470Z,97688.97
2024-02-29T21:35:28.949Z,97691.34
2024-02-29T21:40:52.150Z,97688.16
2024-02-29T21:46:14.055Z,97689.19
2024-02-29T21:51:36.235Z,97689.19
2024-02-29T21:56:58.057Z,97681.47
2024-02-29T22:02:19.954Z,97693.06
2024-02-29T22:07:41.741Z,97676.00
2024-02-29T22:13:03.741Z,97663.72
2024-02-29T22:18:26.105Z,97658.47
2024-02-29T22:23:48.012Z,97665.13
2024-02-29T22:29:11.597Z,97654.00
2024-02-29T22:34:33.503Z,97655.88
2024-02-29T22:39:55.493Z,97661.50
2024-02-29T22:45:17.799Z,97647.06
2024-02-29T22:50:39.697Z,97648.78
2024-02-29T22:56:01.864Z,97644.69
2024-02-29T23:01:25.067Z,97644.09
2024-02-29T23:06:46.984Z,97643.44
2024-02-29T23:12:09.023Z,97643.94
2024-02-29T23:17:30.846Z,97633.84
2024-02-29T23:22:53.893Z,97623.88
2024-02-29T23:28:16.352Z,97616.34
2024-02-29T23:33:38.273Z,97604.63
2024-02-29T23:39:00.168Z,97602.91
2024-02-29T23:44:22.489Z,97598.00
2024-02-29T23:49:44.371Z,97602.88
2024-02-29T23:55:06.721Z,97609.03
